NCAR-RAP Real-Time Weather Data

Output produced by METARs form (08 May 2021  15:35 UTC)
found at http://weather.rap.ucar.edu/surface/
 
KORF 081451Z 26012G21KT 10SM CLR 18/06 A2993 RMK AO2 SLP135 60000 T01780061 56010 $
KORF 081351Z 24016G25KT 10SM CLR 16/06 A2993 RMK AO2 PK WND 22026/1341 SLP136 T01610061 $
KORF 081251Z 22013G19KT 10SM SCT085 13/07 A2995 RMK AO2 RAE12 SLP140 P0000 T01280072 $
KORF 081151Z 22010KT 10SM -RA BKN070 OVC090 11/08 A2996 RMK AO2 RAB47 SLP145 P0000 60000 T01110083 10122 20078 53013 $
KORF 081051Z 22009KT 10SM CLR 10/08 A2994 RMK AO2 SLP137 T01000083
KORF 080951Z 19004KT 10SM CLR 09/07 A2992 RMK AO2 SLP131 T00890072
KORF 080851Z 21005KT 10SM CLR 08/07 A2992 RMK AO2 SLP133 T00830067 51004
KORF 080751Z 24004KT 10SM CLR 11/07 A2992 RMK AO2 SLP132 T01110067
KORF 080651Z VRB04KT 10SM CLR 12/07 A2992 RMK AO2 SLP133 T01170072
KORF 080551Z 33005KT 10SM CLR 12/07 A2991 RMK AO2 SLP129 60000 T01220072 10139 20122 53001
KORF 080451Z VRB04KT 10SM CLR 13/08 A2991 RMK AO2 SLP128 T01280078 402000100
KORF 080351Z 30007KT 10SM SCT120 13/09 A2991 RMK AO2 SLP128 T01280089
KORF 080251Z 31007G16KT 240V350 10SM BKN070 OVC090 13/08 A2991 RMK AO2 RAE06 SLP128 P0000 60000 T01330083 53015
KORF 080151Z 31004KT 10SM -RA OVC060 13/09 A2990 RMK AO2 SLP123 P0000 T01280094
KORF 080051Z VRB06G15KT 10SM -RA SCT016 OVC060 13/10 A2988 RMK AO2 RAB2354 SLP116 P0000 T01280100
KORF 080044Z 29007KT 250V310 10SM -RA SCT016 OVC060 13/11 A2988 RMK AO2 RAB2354 P0000 T01330106
KORF 080035Z VRB05KT 10SM -RA BKN014 BKN021 OVC060 13/11 A2987 RMK AO2 RAB2354 P0000 T01330106
KORF 072358Z VRB04KT 10SM -RA SCT018 SCT023 OVC055 13/10 A2987 RMK AO2 RAB54 P0000 T01330100
KORF 072351Z VRB04KT 10SM SCT018 BKN025 OVC049 14/09 A2987 RMK AO2 SLP113 T01390094 10189 20139 51016
KORF 072349Z 29007G15KT 270V330 10SM SCT018 BKN025 OVC049 14/09 A2987 RMK AO2
KORF 072251Z 28008G16KT 10SM BKN047 BKN055 OVC070 15/09 A2985 RMK AO2 SLP107 T01500089
KORF 072151Z 31009KT 280V340 10SM SCT055 17/08 A2982 RMK AO2 SLP097 T01720078
KORF 072051Z 06003KT 10SM CLR 18/06 A2979 RMK AO2 SLP088 T01830056 58014
KORF 071951Z 00000KT 10SM CLR 18/06 A2981 RMK AO2 SLP094 T01780056
KORF 071851Z 10008KT 10SM CLR 18/06 A2984 RMK AO2 SLP102 T01780061
KORF 071751Z 05009KT 10SM CLR 18/06 A2983 RMK AO2 SLP102 T01780056 10200 20150 58015
KORF 071651Z 03010KT 10SM SCT055 19/06 A2985 RMK AO2 SLP108 T01940056
KORF 071551Z AUTO 19/05 A2987 RMK AO2 SLP115 T01940050 PWINO RVRNO
KORF 071451Z 09007KT 060V120 10SM 19/06 A2988 RMK AO2 SLP117 T01940056 56006
KORF 071351Z 10006KT 10SM CLR 18/06 A2988 RMK AO2 SLP117 T01830061
KORF 071251Z 13005KT 10SM CLR 17/06 A2989 RMK AO2 SLP121 T01720056
KORF 071151Z 00000KT 10SM CLR 15/08 A2990 RMK AO2 SLP123 T01500083 10150 20100 53000
KORF 071051Z 00000KT 10SM CLR 12/09 A2989 RMK AO2 SLP122 T01220089
KORF 070951Z 00000KT 10SM CLR 11/08 A2989 RMK AO2 SLP122 T01060078
KORF 070851Z 00000KT 10SM CLR 11/08 A2989 RMK AO2 SLP122 T01110078 56017
KORF 070751Z 00000KT 10SM CLR 10/06 A2991 RMK AO2 SLP126 T01000061
KORF 070651Z AUTO 21003KT 10SM CLR 11/07 A2992 RMK AO2 SLP133 T01060072
KORF 070551Z AUTO 00000KT 10SM CLR 12/07 A2994 RMK AO2 SLP139 T01220072 10156 20111 58015
KORF 070451Z AUTO 22003KT 10SM CLR 11/07 A2996 RMK AO2 SLP144 T01110072 401890111
KORF 070351Z AUTO 18003KT 10SM CLR 12/07 A2997 RMK AO2 SLP148 T01170067
KORF 070251Z 16004KT 10SM CLR 13/07 A2999 RMK AO2 SLP153 T01330072 51003
KORF 070151Z 17003KT 10SM CLR 14/06 A2998 RMK AO2 SLP153 T01390061
KORF 070051Z 16004KT 10SM CLR 14/06 A2998 RMK AO2 SLP151 T01390061
KORF 062351Z 11005KT 10SM CLR 16/06 A2998 RMK AO2 SLP150 T01560056 10183 20156 53009
KORF 062251Z 05005KT 10SM CLR 17/06 A2996 RMK AO2 SLP145 T01670056
KORF 062151Z VRB06KT 10SM CLR 17/06 A2995 RMK AO2 SLP142 T01670061
KORF 062051Z 03012KT 10SM CLR 17/06 A2995 RMK AO2 SLP141 T01670061 56025
KORF 061951Z 04008KT 10SM CLR 18/05 A2997 RMK AO2 SLP148 T01780050
KORF 061851Z 04008KT 10SM CLR 17/04 A3000 RMK AO2 SLP158 T01720044
KORF 061751Z 10SM CLR 18/05 A3002 RMK AO2 SLP166 T01830050 10189 20144 $
KORF 061551Z 03008KT 10SM CLR 17/04 A3006 RMK AO2 SLP179 T01670039 $